sensor_id;sensor_type;location;lat;lon;timestamp;temperature;humidity
12839;DHT22;6486;51.034;5.262;2023-07-20T00:01:47;19.90;65.90
12839;DHT22;6486;51.034;5.262;2023-07-20T00:04:13;19.80;66.60
12839;DHT22;6486;51.034;5.262;2023-07-20T00:06:39;19.80;66.00
12839;DHT22;6486;51.034;5.262;2023-07-20T00:09:06;19.80;66.10
12839;DHT22;6486;51.034;5.262;2023-07-20T00:11:31;19.80;65.90
12839;DHT22;6486;51.034;5.262;2023-07-20T00:13:57;19.80;66.00
12839;DHT22;6486;51.034;5.262;2023-07-20T00:16:22;19.70;65.90
12839;DHT22;6486;51.034;5.262;2023-07-20T00:18:48;19.70;66.00
12839;DHT22;6486;51.034;5.262;2023-07-20T00:21:14;19.70;66.00
12839;DHT22;6486;51.034;5.262;2023-07-20T00:23:40;19.70;65.90
12839;DHT22;6486;51.034;5.262;2023-07-20T00:26:05;19.60;65.80
12839;DHT22;6486;51.034;5.262;2023-07-20T00:28:31;19.60;65.90
12839;DHT22;6486;51.034;5.262;2023-07-20T00:30:58;19.60;65.90
12839;DHT22;6486;51.034;5.262;2023-07-20T00:33:24;19.60;65.90
12839;DHT22;6486;51.034;5.262;2023-07-20T00:35:51;19.60;65.80
12839;DHT22;6486;51.034;5.262;2023-07-20T00:38:16;19.60;65.70
12839;DHT22;6486;51.034;5.262;2023-07-20T00:40:42;19.60;65.70
12839;DHT22;6486;51.034;5.262;2023-07-20T00:43:08;19.60;65.70
12839;DHT22;6486;51.034;5.262;2023-07-20T00:45:34;19.50;65.70
12839;DHT22;6486;51.034;5.262;2023-07-20T00:48:03;19.50;65.80
12839;DHT22;6486;51.034;5.262;2023-07-20T00:50:30;19.50;65.90
12839;DHT22;6486;51.034;5.262;2023-07-20T00:52:56;19.40;66.60
12839;DHT22;6486;51.034;5.262;2023-07-20T00:55:23;19.40;66.00
12839;DHT22;6486;51.034;5.262;2023-07-20T00:57:50;19.30;66.10
12839;DHT22;6486;51.034;5.262;2023-07-20T01:00:16;19.30;66.20
12839;DHT22;6486;51.034;5.262;2023-07-20T01:02:42;19.30;66.30
12839;DHT22;6486;51.034;5.262;2023-07-20T01:05:08;19.30;66.30
12839;DHT22;6486;51.034;5.262;2023-07-20T01:07:38;19.30;66.30
12839;DHT22;6486;51.034;5.262;2023-07-20T01:10:12;19.30;66.30
12839;DHT22;6486;51.034;5.262;2023-07-20T01:12:46;19.30;66.40
12839;DHT22;6486;51.034;5.262;2023-07-20T01:15:12;19.30;66.40
12839;DHT22;6486;51.034;5.262;2023-07-20T01:17:38;19.30;66.60
12839;DHT22;6486;51.034;5.262;2023-07-20T01:20:08;19.20;66.60
12839;DHT22;6486;51.034;5.262;2023-07-20T01:22:47;19.20;66.80
12839;DHT22;6486;51.034;5.262;2023-07-20T01:25:40;19.10;66.80
12839;DHT22;6486;51.034;5.262;2023-07-20T01:31:24;19.10;67.00
12839;DHT22;6486;51.034;5.262;2023-07-20T01:33:54;19.00;67.00
12839;DHT22;6486;51.034;5.262;2023-07-20T01:36:22;19.00;67.10
12839;DHT22;6486;51.034;5.262;2023-07-20T01:38:49;18.90;67.40
12839;DHT22;6486;51.034;5.262;2023-07-20T01:41:15;18.80;67.60
12839;DHT22;6486;51.034;5.262;2023-07-20T01:43:42;18.80;67.60
12839;DHT22;6486;51.034;5.262;2023-07-20T01:46:07;18.80;67.60
12839;DHT22;6486;51.034;5.262;2023-07-20T01:48:33;18.80;67.70
12839;DHT22;6486;51.034;5.262;2023-07-20T01:50:59;18.80;67.70
12839;DHT22;6486;51.034;5.262;2023-07-20T01:53:24;18.80;67.60
12839;DHT22;6486;51.034;5.262;2023-07-20T01:55:53;18.80;67.50
12839;DHT22;6486;51.034;5.262;2023-07-20T01:58:19;18.80;67.50
12839;DHT22;6486;51.034;5.262;2023-07-20T02:00:44;18.80;67.50
12839;DHT22;6486;51.034;5.262;2023-07-20T02:03:10;18.80;67.50
12839;DHT22;6486;51.034;5.262;2023-07-20T02:05:37;18.80;67.60
12839;DHT22;6486;51.034;5.262;2023-07-20T02:08:03;18.80;67.70
12839;DHT22;6486;51.034;5.262;2023-07-20T02:10:29;18.80;67.60
12839;DHT22;6486;51.034;5.262;2023-07-20T02:12:54;18.80;67.60
12839;DHT22;6486;51.034;5.262;2023-07-20T02:15:20;18.80;68.30
12839;DHT22;6486;51.034;5.262;2023-07-20T02:17:46;18.70;67.50
12839;DHT22;6486;51.034;5.262;2023-07-20T02:20:12;18.70;67.60
12839;DHT22;6486;51.034;5.262;2023-07-20T02:22:38;18.70;67.80
12839;DHT22;6486;51.034;5.262;2023-07-20T02:25:05;18.60;67.80
12839;DHT22;6486;51.034;5.262;2023-07-20T02:27:31;18.60;67.90
12839;DHT22;6486;51.034;5.262;2023-07-20T02:29:57;18.60;68.00
12839;DHT22;6486;51.034;5.262;2023-07-20T02:32:22;18.50;68.00
12839;DHT22;6486;51.034;5.262;2023-07-20T02:34:48;18.40;68.20
12839;DHT22;6486;51.034;5.262;2023-07-20T02:37:14;18.40;68.20
12839;DHT22;6486;51.034;5.262;2023-07-20T02:39:39;18.40;68.10
12839;DHT22;6486;51.034;5.262;2023-07-20T02:42:06;18.40;68.10
12839;DHT22;6486;51.034;5.262;2023-07-20T02:44:31;18.40;68.10
12839;DHT22;6486;51.034;5.262;2023-07-20T02:46:57;18.40;68.20
12839;DHT22;6486;51.034;5.262;2023-07-20T02:49:22;18.40;68.40
12839;DHT22;6486;51.034;5.262;2023-07-20T02:51:48;18.40;68.40
12839;DHT22;6486;51.034;5.262;2023-07-20T02:54:14;18.30;68.40
12839;DHT22;6486;51.034;5.262;2023-07-20T02:56:40;18.30;68.60
12839;DHT22;6486;51.034;5.262;2023-07-20T02:59:05;18.20;68.80
12839;DHT22;6486;51.034;5.262;2023-07-20T03:01:31;18.20;68.90
12839;DHT22;6486;51.034;5.262;2023-07-20T03:03:56;18.20;68.90
12839;DHT22;6486;51.034;5.262;2023-07-20T03:06:23;18.20;68.90
12839;DHT22;6486;51.034;5.262;2023-07-20T03:08:48;18.30;69.00
12839;DHT22;6486;51.034;5.262;2023-07-20T03:11:19;18.30;68.90
12839;DHT22;6486;51.034;5.262;2023-07-20T03:13:46;18.40;68.90
12839;DHT22;6486;51.034;5.262;2023-07-20T03:16:13;18.40;68.90
12839;DHT22;6486;51.034;5.262;2023-07-20T03:18:41;18.40;68.90
12839;DHT22;6486;51.034;5.262;2023-07-20T03:21:08;18.40;69.00
12839;DHT22;6486;51.034;5.262;2023-07-20T03:23:33;18.40;69.10
12839;DHT22;6486;51.034;5.262;2023-07-20T03:26:00;18.40;69.20
12839;DHT22;6486;51.034;5.262;2023-07-20T03:28:25;18.40;69.10
12839;DHT22;6486;51.034;5.262;2023-07-20T03:30:55;18.40;69.10
12839;DHT22;6486;51.034;5.262;2023-07-20T03:33:31;18.50;69.20
12839;DHT22;6486;51.034;5.262;2023-07-20T03:35:57;18.50;69.10
12839;DHT22;6486;51.034;5.262;2023-07-20T03:38:23;18.50;69.10
12839;DHT22;6486;51.034;5.262;2023-07-20T03:43:15;18.50;69.20
12839;DHT22;6486;51.034;5.262;2023-07-20T03:45:40;18.50;69.30
12839;DHT22;6486;51.034;5.262;2023-07-20T03:48:06;18.50;69.30
12839;DHT22;6486;51.034;5.262;2023-07-20T03:50:32;18.50;69.40
12839;DHT22;6486;51.034;5.262;2023-07-20T03:52:58;18.50;69.40
12839;DHT22;6486;51.034;5.262;2023-07-20T03:55:24;18.50;69.60
12839;DHT22;6486;51.034;5.262;2023-07-20T03:57:49;18.50;69.60
12839;DHT22;6486;51.034;5.262;2023-07-20T04:00:17;18.50;69.50
12839;DHT22;6486;51.034;5.262;2023-07-20T04:02:42;18.60;69.60
12839;DHT22;6486;51.034;5.262;2023-07-20T04:05:08;18.60;69.60
12839;DHT22;6486;51.034;5.262;2023-07-20T04:07:34;18.60;69.60
12839;DHT22;6486;51.034;5.262;2023-07-20T04:09:59;18.60;69.50
12839;DHT22;6486;51.034;5.262;2023-07-20T04:12:25;18.60;69.40
12839;DHT22;6486;51.034;5.262;2023-07-20T04:14:50;18.70;69.50
12839;DHT22;6486;51.034;5.262;2023-07-20T04:17:17;18.70;69.40
12839;DHT22;6486;51.034;5.262;2023-07-20T04:19:43;18.70;70.00
12839;DHT22;6486;51.034;5.262;2023-07-20T04:22:08;18.70;69.40
12839;DHT22;6486;51.034;5.262;2023-07-20T04:24:34;18.70;69.40
12839;DHT22;6486;51.034;5.262;2023-07-20T04:26:59;18.70;69.40
12839;DHT22;6486;51.034;5.262;2023-07-20T04:29:25;18.70;69.30
12839;DHT22;6486;51.034;5.262;2023-07-20T04:31:50;18.70;69.20
12839;DHT22;6486;51.034;5.262;2023-07-20T04:34:16;18.80;69.20
12839;DHT22;6486;51.034;5.262;2023-07-20T04:36:42;18.80;69.20
12839;DHT22;6486;51.034;5.262;2023-07-20T04:39:07;18.80;69.10
12839;DHT22;6486;51.034;5.262;2023-07-20T04:41:33;18.80;69.10
12839;DHT22;6486;51.034;5.262;2023-07-20T04:43:59;18.90;69.10
12839;DHT22;6486;51.034;5.262;2023-07-20T04:46:25;18.90;69.10
12839;DHT22;6486;51.034;5.262;2023-07-20T04:48:50;18.90;69.10
12839;DHT22;6486;51.034;5.262;2023-07-20T04:51:16;18.90;69.10
12839;DHT22;6486;51.034;5.262;2023-07-20T04:53:46;18.90;69.10
12839;DHT22;6486;51.034;5.262;2023-07-20T04:56:12;18.90;69.30
12839;DHT22;6486;51.034;5.262;2023-07-20T04:58:37;18.90;69.50
12839;DHT22;6486;51.034;5.262;2023-07-20T05:01:03;18.90;69.70
12839;DHT22;6486;51.034;5.262;2023-07-20T05:03:29;18.90;69.80
12839;DHT22;6486;51.034;5.262;2023-07-20T05:05:54;18.80;69.80
12839;DHT22;6486;51.034;5.262;2023-07-20T05:08:20;18.80;70.00
12839;DHT22;6486;51.034;5.262;2023-07-20T05:10:47;18.80;69.90
12839;DHT22;6486;51.034;5.262;2023-07-20T05:13:13;18.90;69.90
12839;DHT22;6486;51.034;5.262;2023-07-20T05:15:39;18.90;69.90
12839;DHT22;6486;51.034;5.262;2023-07-20T05:18:05;18.90;69.80
12839;DHT22;6486;51.034;5.262;2023-07-20T05:20:30;19.00;69.80
12839;DHT22;6486;51.034;5.262;2023-07-20T05:22:57;19.10;69.70
12839;DHT22;6486;51.034;5.262;2023-07-20T05:25:22;19.10;69.60
12839;DHT22;6486;51.034;5.262;2023-07-20T05:27:48;19.10;69.60
12839;DHT22;6486;51.034;5.262;2023-07-20T05:30:14;19.10;69.60
12839;DHT22;6486;51.034;5.262;2023-07-20T05:32:40;19.20;69.60
12839;DHT22;6486;51.034;5.262;2023-07-20T05:35:06;19.20;69.40
12839;DHT22;6486;51.034;5.262;2023-07-20T05:37:32;19.30;69.40
12839;DHT22;6486;51.034;5.262;2023-07-20T05:39:57;19.30;69.30
12839;DHT22;6486;51.034;5.262;2023-07-20T05:42:23;19.30;69.20
12839;DHT22;6486;51.034;5.262;2023-07-20T05:44:49;19.30;69.30
12839;DHT22;6486;51.034;5.262;2023-07-20T05:47:15;19.30;69.30
12839;DHT22;6486;51.034;5.262;2023-07-20T05:49:41;19.40;69.30
12839;DHT22;6486;51.034;5.262;2023-07-20T05:52:06;19.40;69.20
12839;DHT22;6486;51.034;5.262;2023-07-20T05:54:32;19.50;69.10
12839;DHT22;6486;51.034;5.262;2023-07-20T05:56:58;19.50;69.10
12839;DHT22;6486;51.034;5.262;2023-07-20T05:59:24;19.50;68.90
12839;DHT22;6486;51.034;5.262;2023-07-20T06:01:50;19.50;68.90
12839;DHT22;6486;51.034;5.262;2023-07-20T06:04:15;19.50;68.90
12839;DHT22;6486;51.034;5.262;2023-07-20T06:06:41;19.50;68.90
12839;DHT22;6486;51.034;5.262;2023-07-20T06:09:07;19.40;68.80
12839;DHT22;6486;51.034;5.262;2023-07-20T06:11:40;19.40;69.00
12839;DHT22;6486;51.034;5.262;2023-07-20T06:14:05;19.40;69.00
12839;DHT22;6486;51.034;5.262;2023-07-20T06:16:31;19.40;69.00
12839;DHT22;6486;51.034;5.262;2023-07-20T06:18:57;19.40;68.90
12839;DHT22;6486;51.034;5.262;2023-07-20T06:21:22;19.50;68.90
12839;DHT22;6486;51.034;5.262;2023-07-20T06:23:48;19.50;69.40
12839;DHT22;6486;51.034;5.262;2023-07-20T06:26:14;19.60;68.70
12839;DHT22;6486;51.034;5.262;2023-07-20T06:28:39;19.70;68.60
12839;DHT22;6486;51.034;5.262;2023-07-20T06:31:05;19.80;68.50
12839;DHT22;6486;51.034;5.262;2023-07-20T06:33:30;19.80;68.40
12839;DHT22;6486;51.034;5.262;2023-07-20T06:35:57;19.80;68.40
12839;DHT22;6486;51.034;5.262;2023-07-20T06:38:23;19.70;68.30
12839;DHT22;6486;51.034;5.262;2023-07-20T06:40:49;19.80;68.40
12839;DHT22;6486;51.034;5.262;2023-07-20T06:43:15;19.90;68.40
12839;DHT22;6486;51.034;5.262;2023-07-20T06:45:41;19.90;68.20
12839;DHT22;6486;51.034;5.262;2023-07-20T06:48:07;20.00;68.10
12839;DHT22;6486;51.034;5.262;2023-07-20T06:50:33;20.00;67.90
12839;DHT22;6486;51.034;5.262;2023-07-20T06:52:59;20.00;67.90
12839;DHT22;6486;51.034;5.262;2023-07-20T06:55:25;20.00;67.90
12839;DHT22;6486;51.034;5.262;2023-07-20T06:57:51;20.00;67.90
12839;DHT22;6486;51.034;5.262;2023-07-20T07:00:17;20.00;67.90
12839;DHT22;6486;51.034;5.262;2023-07-20T07:02:44;20.10;68.50
12839;DHT22;6486;51.034;5.262;2023-07-20T07:05:09;20.10;67.60
12839;DHT22;6486;51.034;5.262;2023-07-20T07:07:35;20.20;67.50
12839;DHT22;6486;51.034;5.262;2023-07-20T07:10:01;20.30;67.40
12839;DHT22;6486;51.034;5.262;2023-07-20T07:12:30;20.40;67.30
12839;DHT22;6486;51.034;5.262;2023-07-20T07:14:55;20.50;67.10
12839;DHT22;6486;51.034;5.262;2023-07-20T07:17:21;20.50;66.70
12839;DHT22;6486;51.034;5.262;2023-07-20T07:19:46;20.60;66.60
12839;DHT22;6486;51.034;5.262;2023-07-20T07:22:12;20.60;66.40
12839;DHT22;6486;51.034;5.262;2023-07-20T07:24:39;20.60;66.30
12839;DHT22;6486;51.034;5.262;2023-07-20T07:27:08;20.70;66.10
12839;DHT22;6486;51.034;5.262;2023-07-20T07:29:34;20.70;66.00
12839;DHT22;6486;51.034;5.262;2023-07-20T07:31:59;20.70;65.90
12839;DHT22;6486;51.034;5.262;2023-07-20T07:34:25;20.80;65.70
12839;DHT22;6486;51.034;5.262;2023-07-20T07:36:51;20.80;65.50
12839;DHT22;6486;51.034;5.262;2023-07-20T07:39:17;20.90;65.40
12839;DHT22;6486;51.034;5.262;2023-07-20T07:41:43;21.00;65.20
12839;DHT22;6486;51.034;5.262;2023-07-20T07:44:08;21.10;64.90
12839;DHT22;6486;51.034;5.262;2023-07-20T07:46:34;21.20;64.60
12839;DHT22;6486;51.034;5.262;2023-07-20T07:48:59;21.30;64.50
12839;DHT22;6486;51.034;5.262;2023-07-20T07:51:25;21.40;64.40
12839;DHT22;6486;51.034;5.262;2023-07-20T07:53:52;21.60;64.20
12839;DHT22;6486;51.034;5.262;2023-07-20T07:56:18;21.60;64.10
12839;DHT22;6486;51.034;5.262;2023-07-20T07:58:50;21.60;64.10
12839;DHT22;6486;51.034;5.262;2023-07-20T08:01:19;21.80;63.70
12839;DHT22;6486;51.034;5.262;2023-07-20T08:03:45;21.70;63.50
12839;DHT22;6486;51.034;5.262;2023-07-20T08:06:13;21.60;63.60
12839;DHT22;6486;51.034;5.262;2023-07-20T08:08:39;21.40;63.50
12839;DHT22;6486;51.034;5.262;2023-07-20T08:11:05;21.30;63.80
12839;DHT22;6486;51.034;5.262;2023-07-20T08:13:30;21.20;63.80
12839;DHT22;6486;51.034;5.262;2023-07-20T08:15:57;21.20;63.70
12839;DHT22;6486;51.034;5.262;2023-07-20T08:18:23;21.30;63.60
12839;DHT22;6486;51.034;5.262;2023-07-20T08:20:49;21.70;63.30
12839;DHT22;6486;51.034;5.262;2023-07-20T08:23:15;22.10;62.70
12839;DHT22;6486;51.034;5.262;2023-07-20T08:25:41;22.40;61.70
12839;DHT22;6486;51.034;5.262;2023-07-20T08:28:12;22.80;60.50
12839;DHT22;6486;51.034;5.262;2023-07-20T08:30:46;23.00;60.30
12839;DHT22;6486;51.034;5.262;2023-07-20T08:33:18;23.30;60.00
12839;DHT22;6486;51.034;5.262;2023-07-20T08:35:49;23.70;59.40
12839;DHT22;6486;51.034;5.262;2023-07-20T08:38:14;23.90;58.70
12839;DHT22;6486;51.034;5.262;2023-07-20T08:40:44;23.90;58.60
12839;DHT22;6486;51.034;5.262;2023-07-20T08:43:11;23.70;58.50
12839;DHT22;6486;51.034;5.262;2023-07-20T08:45:39;23.40;58.40
12839;DHT22;6486;51.034;5.262;2023-07-20T08:48:06;23.20;58.50
12839;DHT22;6486;51.034;5.262;2023-07-20T08:50:32;23.00;58.30
12839;DHT22;6486;51.034;5.262;2023-07-20T08:52:59;23.00;58.40
12839;DHT22;6486;51.034;5.262;2023-07-20T08:55:29;23.40;58.10
12839;DHT22;6486;51.034;5.262;2023-07-20T08:57:57;23.60;57.80
12839;DHT22;6486;51.034;5.262;2023-07-20T09:00:23;23.50;57.50
12839;DHT22;6486;51.034;5.262;2023-07-20T09:02:51;23.40;57.70
12839;DHT22;6486;51.034;5.262;2023-07-20T09:05:17;23.20;57.60
12839;DHT22;6486;51.034;5.262;2023-07-20T09:07:44;22.90;57.30
12839;DHT22;6486;51.034;5.262;2023-07-20T09:10:10;22.80;57.40
12839;DHT22;6486;51.034;5.262;2023-07-20T09:12:40;23.00;57.20
12839;DHT22;6486;51.034;5.262;2023-07-20T09:15:07;23.40;56.90
12839;DHT22;6486;51.034;5.262;2023-07-20T09:17:33;23.70;56.10
12839;DHT22;6486;51.034;5.262;2023-07-20T09:20:02;24.10;55.80
12839;DHT22;6486;51.034;5.262;2023-07-20T09:22:31;24.40;55.40
12839;DHT22;6486;51.034;5.262;2023-07-20T09:24:58;24.60;54.80
12839;DHT22;6486;51.034;5.262;2023-07-20T09:27:40;24.40;54.80
12839;DHT22;6486;51.034;5.262;2023-07-20T09:30:06;24.10;54.60
12839;DHT22;6486;51.034;5.262;2023-07-20T09:32:45;24.00;55.00
12839;DHT22;6486;51.034;5.262;2023-07-20T09:35:19;24.20;54.80
12839;DHT22;6486;51.034;5.262;2023-07-20T09:37:58;24.20;53.90
12839;DHT22;6486;51.034;5.262;2023-07-20T09:40:25;23.90;54.30
12839;DHT22;6486;51.034;5.262;2023-07-20T09:42:53;23.90;54.60
12839;DHT22;6486;51.034;5.262;2023-07-20T09:45:34;23.70;54.40
12839;DHT22;6486;51.034;5.262;2023-07-20T09:48:08;23.60;54.50
12839;DHT22;6486;51.034;5.262;2023-07-20T09:50:41;23.40;54.60
12839;DHT22;6486;51.034;5.262;2023-07-20T09:53:12;23.20;54.90
12839;DHT22;6486;51.034;5.262;2023-07-20T09:55:40;23.10;55.90
12839;DHT22;6486;51.034;5.262;2023-07-20T09:58:08;23.10;55.60
12839;DHT22;6486;51.034;5.262;2023-07-20T10:00:36;23.30;55.70
12839;DHT22;6486;51.034;5.262;2023-07-20T10:03:04;23.60;55.40
12839;DHT22;6486;51.034;5.262;2023-07-20T10:05:33;24.00;55.00
12839;DHT22;6486;51.034;5.262;2023-07-20T10:08:03;24.30;54.60
12839;DHT22;6486;51.034;5.262;2023-07-20T10:10:33;24.70;54.30
12839;DHT22;6486;51.034;5.262;2023-07-20T10:13:00;25.10;53.60
12839;DHT22;6486;51.034;5.262;2023-07-20T10:15:36;25.50;53.10
12839;DHT22;6486;51.034;5.262;2023-07-20T10:20:40;26.00;51.90
12839;DHT22;6486;51.034;5.262;2023-07-20T10:23:07;26.20;51.80
12839;DHT22;6486;51.034;5.262;2023-07-20T10:25:33;26.30;51.20
12839;DHT22;6486;51.034;5.262;2023-07-20T10:28:05;26.50;51.10
12839;DHT22;6486;51.034;5.262;2023-07-20T10:30:35;26.70;50.70
12839;DHT22;6486;51.034;5.262;2023-07-20T10:33:02;26.90;50.50
12839;DHT22;6486;51.034;5.262;2023-07-20T10:35:28;27.10;49.80
12839;DHT22;6486;51.034;5.262;2023-07-20T10:37:59;27.20;49.10
12839;DHT22;6486;51.034;5.262;2023-07-20T10:42:57;26.70;49.00
12839;DHT22;6486;51.034;5.262;2023-07-20T10:45:33;26.50;48.80
12839;DHT22;6486;51.034;5.262;2023-07-20T10:48:03;26.50;48.60
12839;DHT22;6486;51.034;5.262;2023-07-20T10:50:29;26.60;48.10
12839;DHT22;6486;51.034;5.262;2023-07-20T10:53:11;26.70;47.40
12839;DHT22;6486;51.034;5.262;2023-07-20T10:55:38;26.80;47.00
12839;DHT22;6486;51.034;5.262;2023-07-20T10:58:08;27.00;47.00
12839;DHT22;6486;51.034;5.262;2023-07-20T11:00:35;27.00;46.30
12839;DHT22;6486;51.034;5.262;2023-07-20T11:03:01;27.00;46.40
12839;DHT22;6486;51.034;5.262;2023-07-20T11:05:38;27.00;46.70
12839;DHT22;6486;51.034;5.262;2023-07-20T11:08:09;27.20;46.30
12839;DHT22;6486;51.034;5.262;2023-07-20T11:10:35;27.40;46.40
12839;DHT22;6486;51.034;5.262;2023-07-20T11:13:23;27.70;46.50
12839;DHT22;6486;51.034;5.262;2023-07-20T11:16:09;28.00;46.20
12839;DHT22;6486;51.034;5.262;2023-07-20T11:18:35;28.40;45.60
12839;DHT22;6486;51.034;5.262;2023-07-20T11:21:07;28.40;45.30
12839;DHT22;6486;51.034;5.262;2023-07-20T11:23:38;28.50;45.20
12839;DHT22;6486;51.034;5.262;2023-07-20T11:26:03;28.60;44.80
12839;DHT22;6486;51.034;5.262;2023-07-20T11:28:32;28.80;44.40
12839;DHT22;6486;51.034;5.262;2023-07-20T11:30:59;28.90;44.10
12839;DHT22;6486;51.034;5.262;2023-07-20T11:33:25;29.00;44.30
12839;DHT22;6486;51.034;5.262;2023-07-20T11:35:50;29.20;43.30
12839;DHT22;6486;51.034;5.262;2023-07-20T11:38:16;29.30;42.20
12839;DHT22;6486;51.034;5.262;2023-07-20T11:40:44;29.40;42.30
12839;DHT22;6486;51.034;5.262;2023-07-20T11:43:11;29.60;41.90
12839;DHT22;6486;51.034;5.262;2023-07-20T11:45:38;29.30;42.10
12839;DHT22;6486;51.034;5.262;2023-07-20T11:48:04;28.90;41.90
12839;DHT22;6486;51.034;5.262;2023-07-20T11:50:30;28.70;42.30
12839;DHT22;6486;51.034;5.262;2023-07-20T11:52:56;28.50;42.00
12839;DHT22;6486;51.034;5.262;2023-07-20T11:55:22;28.30;41.80
12839;DHT22;6486;51.034;5.262;2023-07-20T11:58:08;28.00;41.50
12839;DHT22;6486;51.034;5.262;2023-07-20T12:00:34;27.70;42.00
12839;DHT22;6486;51.034;5.262;2023-07-20T12:03:01;27.40;42.10
12839;DHT22;6486;51.034;5.262;2023-07-20T12:05:27;27.10;42.50
12839;DHT22;6486;51.034;5.262;2023-07-20T12:07:53;27.00;42.90
12839;DHT22;6486;51.034;5.262;2023-07-20T12:10:26;26.90;43.00
12839;DHT22;6486;51.034;5.262;2023-07-20T12:12:54;26.80;43.00
12839;DHT22;6486;51.034;5.262;2023-07-20T12:15:20;26.70;43.40
12839;DHT22;6486;51.034;5.262;2023-07-20T12:17:50;26.50;43.40
12839;DHT22;6486;51.034;5.262;2023-07-20T12:20:35;26.30;43.60
12839;DHT22;6486;51.034;5.262;2023-07-20T12:23:20;26.00;44.00
12839;DHT22;6486;51.034;5.262;2023-07-20T12:25:46;25.80;44.30
12839;DHT22;6486;51.034;5.262;2023-07-20T12:28:14;25.80;44.30
12839;DHT22;6486;51.034;5.262;2023-07-20T12:30:42;25.80;44.30
12839;DHT22;6486;51.034;5.262;2023-07-20T12:33:08;25.90;44.10
12839;DHT22;6486;51.034;5.262;2023-07-20T12:35:34;26.00;44.30
12839;DHT22;6486;51.034;5.262;2023-07-20T12:38:00;26.00;44.50
12839;DHT22;6486;51.034;5.262;2023-07-20T12:40:26;26.00;44.70
12839;DHT22;6486;51.034;5.262;2023-07-20T12:42:51;26.00;44.70
12839;DHT22;6486;51.034;5.262;2023-07-20T12:45:17;26.00;44.70
12839;DHT22;6486;51.034;5.262;2023-07-20T12:47:43;26.00;44.80
12839;DHT22;6486;51.034;5.262;2023-07-20T12:50:12;26.00;44.90
12839;DHT22;6486;51.034;5.262;2023-07-20T12:52:39;25.90;44.80
12839;DHT22;6486;51.034;5.262;2023-07-20T12:55:06;25.90;45.10
12839;DHT22;6486;51.034;5.262;2023-07-20T12:57:32;25.80;45.20
12839;DHT22;6486;51.034;5.262;2023-07-20T12:59:58;25.70;45.20
12839;DHT22;6486;51.034;5.262;2023-07-20T13:02:24;25.70;45.30
12839;DHT22;6486;51.034;5.262;2023-07-20T13:04:49;25.80;45.40
12839;DHT22;6486;51.034;5.262;2023-07-20T13:07:15;25.90;45.30
12839;DHT22;6486;51.034;5.262;2023-07-20T13:09:40;26.00;45.40
12839;DHT22;6486;51.034;5.262;2023-07-20T13:12:06;26.10;45.40
12839;DHT22;6486;51.034;5.262;2023-07-20T13:14:32;26.50;45.10
12839;DHT22;6486;51.034;5.262;2023-07-20T13:16:58;26.80;44.50
12839;DHT22;6486;51.034;5.262;2023-07-20T13:19:24;27.10;44.30
12839;DHT22;6486;51.034;5.262;2023-07-20T13:21:50;27.40;44.20
12839;DHT22;6486;51.034;5.262;2023-07-20T13:24:15;27.50;43.70
12839;DHT22;6486;51.034;5.262;2023-07-20T13:26:41;27.40;43.60
12839;DHT22;6486;51.034;5.262;2023-07-20T13:29:07;27.30;43.50
12839;DHT22;6486;51.034;5.262;2023-07-20T13:31:32;27.20;43.70
12839;DHT22;6486;51.034;5.262;2023-07-20T13:33:58;27.00;43.60
12839;DHT22;6486;51.034;5.262;2023-07-20T13:36:24;26.90;43.60
12839;DHT22;6486;51.034;5.262;2023-07-20T13:38:50;26.80;43.80
12839;DHT22;6486;51.034;5.262;2023-07-20T13:41:15;26.70;44.00
12839;DHT22;6486;51.034;5.262;2023-07-20T13:43:43;26.80;43.90
12839;DHT22;6486;51.034;5.262;2023-07-20T13:46:10;26.90;43.90
12839;DHT22;6486;51.034;5.262;2023-07-20T13:48:35;26.90;43.80
12839;DHT22;6486;51.034;5.262;2023-07-20T13:51:01;26.90;43.90
12839;DHT22;6486;51.034;5.262;2023-07-20T13:53:26;27.10;43.90
12839;DHT22;6486;51.034;5.262;2023-07-20T13:55:53;27.40;43.60
12839;DHT22;6486;51.034;5.262;2023-07-20T13:58:19;27.50;43.30
12839;DHT22;6486;51.034;5.262;2023-07-20T14:00:44;27.60;43.30
12839;DHT22;6486;51.034;5.262;2023-07-20T14:03:10;27.60;43.00
12839;DHT22;6486;51.034;5.262;2023-07-20T14:05:36;27.50;42.50
12839;DHT22;6486;51.034;5.262;2023-07-20T14:08:01;27.30;42.90
12839;DHT22;6486;51.034;5.262;2023-07-20T14:10:27;27.20;43.20
12839;DHT22;6486;51.034;5.262;2023-07-20T14:12:52;27.10;43.50
12839;DHT22;6486;51.034;5.262;2023-07-20T14:15:18;27.00;43.80
12839;DHT22;6486;51.034;5.262;2023-07-20T14:17:45;26.90;43.80
12839;DHT22;6486;51.034;5.262;2023-07-20T14:20:11;26.80;43.90
12839;DHT22;6486;51.034;5.262;2023-07-20T14:22:37;26.80;44.00
12839;DHT22;6486;51.034;5.262;2023-07-20T14:25:03;26.70;44.10
12839;DHT22;6486;51.034;5.262;2023-07-20T14:27:28;26.60;44.20
12839;DHT22;6486;51.034;5.262;2023-07-20T14:29:54;26.60;44.30
12839;DHT22;6486;51.034;5.262;2023-07-20T14:32:21;26.50;44.30
12839;DHT22;6486;51.034;5.262;2023-07-20T14:34:46;26.80;44.30
12839;DHT22;6486;51.034;5.262;2023-07-20T14:37:12;27.00;44.40
12839;DHT22;6486;51.034;5.262;2023-07-20T14:39:38;27.20;44.40
12839;DHT22;6486;51.034;5.262;2023-07-20T14:42:04;27.20;43.80
12839;DHT22;6486;51.034;5.262;2023-07-20T14:44:30;27.20;43.20
12839;DHT22;6486;51.034;5.262;2023-07-20T14:46:56;27.10;43.00
12839;DHT22;6486;51.034;5.262;2023-07-20T14:49:21;27.00;43.50
12839;DHT22;6486;51.034;5.262;2023-07-20T14:51:47;26.90;42.80
12839;DHT22;6486;51.034;5.262;2023-07-20T14:54:14;26.80;43.00
12839;DHT22;6486;51.034;5.262;2023-07-20T14:56:49;26.80;43.20
12839;DHT22;6486;51.034;5.262;2023-07-20T14:59:15;26.60;43.20
12839;DHT22;6486;51.034;5.262;2023-07-20T15:01:41;26.50;43.20
12839;DHT22;6486;51.034;5.262;2023-07-20T15:04:08;26.50;43.40
12839;DHT22;6486;51.034;5.262;2023-07-20T15:06:33;26.40;43.60
12839;DHT22;6486;51.034;5.262;2023-07-20T15:08:59;26.30;44.00
12839;DHT22;6486;51.034;5.262;2023-07-20T15:11:26;26.10;44.20
12839;DHT22;6486;51.034;5.262;2023-07-20T15:13:51;26.00;44.30
12839;DHT22;6486;51.034;5.262;2023-07-20T15:16:17;25.90;44.50
12839;DHT22;6486;51.034;5.262;2023-07-20T15:18:43;25.80;44.70
12839;DHT22;6486;51.034;5.262;2023-07-20T15:21:08;25.70;45.00
12839;DHT22;6486;51.034;5.262;2023-07-20T15:23:34;25.60;45.30
12839;DHT22;6486;51.034;5.262;2023-07-20T15:26:00;25.50;45.60
12839;DHT22;6486;51.034;5.262;2023-07-20T15:28:25;25.50;45.70
12839;DHT22;6486;51.034;5.262;2023-07-20T15:31:02;25.40;45.90
12839;DHT22;6486;51.034;5.262;2023-07-20T15:33:28;25.40;46.10
12839;DHT22;6486;51.034;5.262;2023-07-20T15:35:54;25.30;46.20
12839;DHT22;6486;51.034;5.262;2023-07-20T15:38:20;25.30;46.30
12839;DHT22;6486;51.034;5.262;2023-07-20T15:40:47;25.20;46.40
12839;DHT22;6486;51.034;5.262;2023-07-20T15:43:15;25.20;46.60
12839;DHT22;6486;51.034;5.262;2023-07-20T15:45:40;25.20;46.70
12839;DHT22;6486;51.034;5.262;2023-07-20T15:48:06;25.10;46.80
12839;DHT22;6486;51.034;5.262;2023-07-20T15:50:32;25.10;46.90
12839;DHT22;6486;51.034;5.262;2023-07-20T15:52:57;25.00;47.00
12839;DHT22;6486;51.034;5.262;2023-07-20T15:55:23;25.00;47.20